createdAt,value
2023-01-06T00:02:36.147Z,1015.24
2023-01-06T00:06:36.200Z,1015.15
2023-01-06T00:10:35.440Z,1015.18
2023-01-06T00:14:35.147Z,1015.22
2023-01-06T00:18:35.526Z,1015.1
2023-01-06T00:22:35.297Z,1015.03
2023-01-06T00:26:35.435Z,1015.11
2023-01-06T00:30:35.347Z,1014.96
2023-01-06T00:34:35.269Z,1015.08
2023-01-06T00:38:35.248Z,1015.05
2023-01-06T00:42:35.572Z,1015.13
2023-01-06T00:46:35.980Z,1014.99
2023-01-06T00:50:35.789Z,1014.91
2023-01-06T00:54:35.831Z,1014.95
2023-01-06T00:58:35.757Z,1014.9
2023-01-06T01:02:36.514Z,1014.93
2023-01-06T01:06:35.360Z,1014.83
2023-01-06T01:10:35.291Z,1014.77
2023-01-06T01:14:35.629Z,1014.71
2023-01-06T01:18:35.575Z,1014.68
2023-01-06T01:22:35.695Z,1014.68
2023-01-06T01:26:35.929Z,1014.66
2023-01-06T01:30:36.131Z,1014.68
2023-01-06T01:34:35.990Z,1014.54
2023-01-06T01:38:35.035Z,1014.5
2023-01-06T01:42:35.312Z,1014.38
2023-01-06T01:46:35.680Z,1014.36
2023-01-06T01:50:35.620Z,1014.26
2023-01-06T01:54:35.677Z,1014.31
2023-01-06T01:58:35.473Z,1014.19
2023-01-06T02:02:35.837Z,1014.19
2023-01-06T02:06:35.292Z,1014.19
2023-01-06T02:10:35.557Z,1014.12
2023-01-06T02:14:35.631Z,1014.02
2023-01-06T02:18:35.810Z,1014.01
2023-01-06T02:22:35.038Z,1014.12
2023-01-06T02:26:36.141Z,1014.07
2023-01-06T02:30:35.980Z,1013.82
2023-01-06T02:34:35.110Z,1013.73
2023-01-06T02:38:35.317Z,1013.82
2023-01-06T02:42:35.762Z,1013.67
2023-01-06T02:46:36.179Z,1013.48
2023-01-06T02:50:36.078Z,1013.39
2023-01-06T02:54:35.177Z,1013.34
2023-01-06T02:58:35.175Z,1013.35
2023-01-06T03:02:36.399Z,1013.28
2023-01-06T03:06:35.823Z,1013.26
2023-01-06T03:10:35.934Z,1013.13
2023-01-06T03:14:35.800Z,1013.06
2023-01-06T03:18:36.098Z,1013.18
2023-01-06T03:22:35.985Z,1013.01
2023-01-06T03:26:35.246Z,1012.81
2023-01-06T03:30:35.387Z,1012.98
2023-01-06T03:34:35.350Z,1012.83
2023-01-06T03:38:35.647Z,1012.74
2023-01-06T03:42:53.879Z,1012.77
2023-01-06T03:46:36.328Z,1012.68
2023-01-06T03:50:35.339Z,1012.62
2023-01-06T03:54:35.577Z,1012.6
2023-01-06T03:58:35.368Z,1012.55
2023-01-06T04:02:35.929Z,1012.65
2023-01-06T04:06:35.083Z,1012.48
2023-01-06T04:10:36.074Z,1012.47
2023-01-06T04:14:35.301Z,1012.35
2023-01-06T04:18:35.175Z,1012.27
2023-01-06T04:22:35.321Z,1012.4
2023-01-06T04:26:35.262Z,1012.19
2023-01-06T04:30:35.647Z,1012.23
2023-01-06T04:34:35.945Z,1012.22
2023-01-06T04:38:36.028Z,1012.24
2023-01-06T04:42:35.202Z,1012.31
2023-01-06T04:46:35.370Z,1012.17
2023-01-06T04:50:35.637Z,1012.14
2023-01-06T04:54:35.333Z,1011.99
2023-01-06T04:58:35.684Z,1012.04
2023-01-06T05:02:35.347Z,1012.05
2023-01-06T05:06:35.020Z,1011.88
2023-01-06T05:10:35.327Z,1012.05
2023-01-06T05:14:35.559Z,1011.88
2023-01-06T05:18:35.751Z,1011.9
2023-01-06T05:22:35.800Z,1011.85
2023-01-06T05:26:36.012Z,1011.91
2023-01-06T05:30:35.873Z,1011.88
2023-01-06T05:34:35.187Z,1011.84
2023-01-06T05:38:35.195Z,1011.87
2023-01-06T05:42:35.537Z,1011.84
2023-01-06T05:46:35.890Z,1012.02
2023-01-06T05:50:35.611Z,1012.12
2023-01-06T05:54:35.947Z,1012.03
2023-01-06T05:58:35.946Z,1012.1
2023-01-06T06:02:36.243Z,1012.08
2023-01-06T06:06:35.825Z,1012.28
2023-01-06T06:10:36.191Z,1012.36
2023-01-06T06:14:35.199Z,1012.57
2023-01-06T06:18:35.367Z,1012.55
2023-01-06T06:22:35.686Z,1012.67
2023-01-06T06:26:35.669Z,1012.73
2023-01-06T06:30:35.829Z,1012.77
2023-01-06T06:34:35.563Z,1012.81
2023-01-06T06:38:35.425Z,1013.04
2023-01-06T06:42:35.339Z,1013.03
2023-01-06T06:46:35.507Z,1013.13
2023-01-06T06:50:35.621Z,1013.09
2023-01-06T06:54:35.656Z,1013.09
2023-01-06T06:58:35.902Z,1013.17
2023-01-06T07:02:36.080Z,1013.22
2023-01-06T07:06:37.935Z,1013.25
2023-01-06T07:10:35.787Z,1013.4
2023-01-06T07:14:35.932Z,1013.42
2023-01-06T07:18:35.667Z,1013.55
2023-01-06T07:22:35.688Z,1013.67
2023-01-06T07:26:35.708Z,1013.79
2023-01-06T07:30:35.742Z,1013.78
2023-01-06T07:34:35.697Z,1013.87
2023-01-06T07:38:35.656Z,1013.87
2023-01-06T07:42:35.494Z,1013.89
2023-01-06T07:46:35.848Z,1013.96
2023-01-06T07:50:37.724Z,1013.98
2023-01-06T07:54:35.806Z,1014.11
2023-01-06T07:58:35.917Z,1013.91
2023-01-06T08:02:36.483Z,1014.22
2023-01-06T08:06:35.800Z,1014.19
2023-01-06T08:10:35.797Z,1014.26
2023-01-06T08:14:35.841Z,1014.49
2023-01-06T08:18:35.894Z,1014.5
2023-01-06T08:22:35.828Z,1014.67
2023-01-06T08:26:35.972Z,1014.74
2023-01-06T08:30:35.778Z,1014.71
2023-01-06T08:34:35.881Z,1014.88
2023-01-06T08:38:35.579Z,1014.98
2023-01-06T08:42:35.932Z,1014.84
2023-01-06T08:46:36.329Z,1014.88
2023-01-06T08:50:38.612Z,1015.04
2023-01-06T08:54:36.070Z,1015.05
2023-01-06T08:58:35.946Z,1014.99
2023-01-06T09:02:36.226Z,1015.24
2023-01-06T09:06:35.725Z,1015.23
2023-01-06T09:10:35.917Z,1015.29
2023-01-06T09:14:36.027Z,1015.21
2023-01-06T09:18:35.131Z,1015.19
2023-01-06T09:22:35.288Z,1015.08
2023-01-06T09:26:35.301Z,1015.04
2023-01-06T09:30:35.577Z,1015.12
2023-01-06T09:34:35.402Z,1015.18
2023-01-06T09:38:35.832Z,1015.17
2023-01-06T09:42:35.870Z,1015.25
2023-01-06T09:46:36.252Z,1015.45
2023-01-06T09:50:35.304Z,1015.58
2023-01-06T09:54:35.459Z,1015.61
2023-01-06T09:58:35.453Z,1015.67
2023-01-06T10:02:36.205Z,1015.9
2023-01-06T10:06:36.198Z,1015.8
2023-01-06T10:10:36.009Z,1015.93
2023-01-06T10:14:35.170Z,1015.8
2023-01-06T10:18:35.358Z,1015.92
2023-01-06T10:22:35.443Z,1015.85
2023-01-06T10:26:35.106Z,1015.82
2023-01-06T10:30:44.378Z,1015.71
2023-01-06T10:34:35.467Z,1015.81
2023-01-06T10:38:35.581Z,1015.78
2023-01-06T10:42:35.830Z,1015.78
2023-01-06T10:46:35.981Z,1015.91
2023-01-06T10:50:35.888Z,1015.92
2023-01-06T10:54:35.561Z,1015.84
2023-01-06T10:58:35.400Z,1015.89
2023-01-06T11:02:36.181Z,1015.71
2023-01-06T11:06:35.171Z,1015.87
2023-01-06T11:10:36.002Z,1015.91
2023-01-06T11:14:35.634Z,1015.75
2023-01-06T11:18:35.565Z,1015.73
2023-01-06T11:22:35.876Z,1015.75
2023-01-06T11:26:35.303Z,1015.76
2023-01-06T11:30:36.055Z,1015.76
2023-01-06T11:34:35.063Z,1015.66
2023-01-06T11:38:35.756Z,1015.65
2023-01-06T11:42:35.832Z,1015.59
2023-01-06T11:46:36.099Z,1015.62
2023-01-06T11:50:36.057Z,1015.68
2023-01-06T11:54:35.577Z,1015.49
2023-01-06T11:58:35.882Z,1015.4
2023-01-06T12:02:36.267Z,1015.36
2023-01-06T12:06:35.963Z,1015.22
2023-01-06T12:10:36.182Z,1015.36
2023-01-06T12:14:57.339Z,1015.4
2023-01-06T12:18:36.463Z,1015.48
2023-01-06T12:22:35.291Z,1015.64
2023-01-06T12:26:36.204Z,1015.62
2023-01-06T12:30:35.388Z,1015.61
2023-01-06T12:34:35.461Z,1015.44
2023-01-06T12:38:35.779Z,1015.57
2023-01-06T12:42:38.103Z,1015.54
2023-01-06T12:46:36.039Z,1015.62
2023-01-06T12:50:35.439Z,1015.53
2023-01-06T12:54:35.410Z,1015.5
2023-01-06T12:58:35.393Z,1015.44
2023-01-06T13:02:36.478Z,1015.49
2023-01-06T13:06:35.973Z,1015.37
2023-01-06T13:10:35.805Z,1015.22
2023-01-06T13:14:35.748Z,1015.28
2023-01-06T13:18:37.652Z,1015.28
2023-01-06T13:22:35.883Z,1015.33
2023-01-06T13:26:35.660Z,1015.47
2023-01-06T13:30:35.815Z,1015.3
2023-01-06T13:34:35.350Z,1015.4
2023-01-06T13:38:35.317Z,1015.41
2023-01-06T13:42:35.250Z,1015.35
2023-01-06T13:46:35.721Z,1015.3
2023-01-06T13:50:35.346Z,1015.25
2023-01-06T13:54:35.322Z,1015.32
2023-01-06T13:58:35.331Z,1015.24
2023-01-06T14:02:36.863Z,1015.2
2023-01-06T14:06:36.042Z,1015.23
2023-01-06T14:10:35.792Z,1015.11
2023-01-06T14:14:35.710Z,1015.17
2023-01-06T14:18:35.716Z,1015.23
2023-01-06T14:22:35.774Z,1015.23
2023-01-06T14:26:35.839Z,1015.14
2023-01-06T14:30:35.928Z,1015.03
2023-01-06T14:34:35.909Z,1015.01
2023-01-06T14:38:35.609Z,1014.97
2023-01-06T14:42:35.484Z,1015.12
2023-01-06T14:46:35.754Z,1015.06
2023-01-06T14:50:47.064Z,1014.98
2023-01-06T14:54:35.708Z,1015.02
2023-01-06T14:58:35.988Z,1015.06
2023-01-06T15:02:37.323Z,1015.1
2023-01-06T15:06:35.773Z,1015.09
2023-01-06T15:10:35.807Z,1015.02
2023-01-06T15:14:35.970Z,1015.01
2023-01-06T15:18:36.067Z,1014.95
2023-01-06T15:22:35.793Z,1015.09
2023-01-06T15:26:35.706Z,1015.03
2023-01-06T15:30:35.412Z,1015
2023-01-06T15:34:35.708Z,1014.96
2023-01-06T15:38:35.705Z,1014.96
2023-01-06T15:42:35.995Z,1014.8
2023-01-06T15:46:36.266Z,1014.92
2023-01-06T15:50:36.118Z,1014.82
2023-01-06T15:54:35.836Z,1014.87
2023-01-06T15:58:35.461Z,1014.87
2023-01-06T16:02:35.816Z,1014.82
2023-01-06T16:06:45.557Z,1014.82
2023-01-06T16:10:35.879Z,1014.84
2023-01-06T16:14:35.634Z,1014.75
2023-01-06T16:18:38.413Z,1014.8
2023-01-06T16:22:35.227Z,1014.79
2023-01-06T16:26:37.640Z,1014.74
2023-01-06T16:30:36.007Z,1014.86
2023-01-06T16:34:35.666Z,1014.67
2023-01-06T16:38:35.664Z,1014.77
2023-01-06T16:42:35.433Z,1014.87
2023-01-06T16:46:36.373Z,1014.77
2023-01-06T16:50:35.848Z,1014.81
2023-01-06T16:54:35.675Z,1014.78
2023-01-06T16:58:35.974Z,1014.65
2023-01-06T17:02:36.205Z,1014.75
2023-01-06T17:06:35.445Z,1014.8
2023-01-06T17:10:35.510Z,1014.74
2023-01-06T17:14:35.195Z,1014.68
2023-01-06T17:18:37.603Z,1014.64
2023-01-06T17:22:36.047Z,1014.74
2023-01-06T17:26:35.998Z,1014.74
2023-01-06T17:30:35.817Z,1014.74
2023-01-06T17:34:36.488Z,1014.67
2023-01-06T17:38:35.878Z,1014.65
2023-01-06T17:42:36.080Z,1014.66
2023-01-06T17:46:35.927Z,1014.66
2023-01-06T17:50:38.272Z,1014.72
2023-01-06T17:54:35.495Z,1014.67
2023-01-06T17:58:35.536Z,1014.61
2023-01-06T18:02:35.821Z,1014.57
2023-01-06T18:06:35.702Z,1014.7
2023-01-06T18:10:35.947Z,1014.76
2023-01-06T18:14:38.110Z,1014.69
2023-01-06T18:18:35.556Z,1014.56
2023-01-06T18:22:35.529Z,1014.47
2023-01-06T18:26:35.447Z,1014.65
2023-01-06T18:30:35.567Z,1014.57
2023-01-06T18:34:35.731Z,1014.61
2023-01-06T18:38:35.673Z,1014.61
2023-01-06T18:42:37.133Z,1014.48
2023-01-06T18:46:35.514Z,1014.27
2023-01-06T18:50:35.346Z,1014.47
2023-01-06T18:54:35.482Z,1014.4
2023-01-06T18:58:35.725Z,1014.26
2023-01-06T19:02:35.988Z,1014.19
2023-01-06T19:06:38.684Z,1014.08
2023-01-06T19:10:35.844Z,1014.24
2023-01-06T19:14:35.972Z,1014.19
2023-01-06T19:18:36.026Z,1014.24
2023-01-06T19:22:35.301Z,1014.13
2023-01-06T19:26:35.259Z,1014.1
2023-01-06T19:30:35.486Z,1014.06
2023-01-06T19:34:35.422Z,1014.11
2023-01-06T19:38:35.569Z,1014.09
2023-01-06T19:42:35.536Z,1013.86
2023-01-06T19:46:35.663Z,1013.83
2023-01-06T19:50:35.609Z,1013.84
2023-01-06T19:54:35.621Z,1013.86
2023-01-06T19:58:35.718Z,1013.79
2023-01-06T20:02:35.974Z,1013.81
2023-01-06T20:06:35.303Z,1013.89
2023-01-06T20:10:35.467Z,1013.9
2023-01-06T20:14:35.776Z,1014.04
2023-01-06T20:18:35.643Z,1013.89
2023-01-06T20:22:35.808Z,1013.9
2023-01-06T20:26:36.014Z,1013.88
2023-01-06T20:30:36.042Z,1013.81
2023-01-06T20:34:35.846Z,1013.67
2023-01-06T20:38:35.888Z,1013.76
2023-01-06T20:42:36.076Z,1013.66
2023-01-06T20:46:35.469Z,1013.69
2023-01-06T20:50:35.504Z,1013.62
2023-01-06T20:54:35.420Z,1013.69
2023-01-06T20:58:35.720Z,1013.62
2023-01-06T21:02:36.319Z,1013.62
2023-01-06T21:06:35.649Z,1013.71
2023-01-06T21:10:36.000Z,1013.58
2023-01-06T21:14:35.153Z,1013.59
2023-01-06T21:18:35.255Z,1013.6
2023-01-06T21:22:35.455Z,1013.62
2023-01-06T21:26:35.453Z,1013.55
2023-01-06T21:30:35.664Z,1013.57
2023-01-06T21:34:35.775Z,1013.46
2023-01-06T21:38:35.835Z,1013.51
2023-01-06T21:42:35.656Z,1013.53
2023-01-06T21:46:36.187Z,1013.54
2023-01-06T21:50:38.316Z,1013.41
2023-01-06T21:54:35.188Z,1013.46
2023-01-06T21:58:35.257Z,1013.46
2023-01-06T22:02:36.295Z,1013.43
2023-01-06T22:06:35.556Z,1013.32
2023-01-06T22:10:38.211Z,1013.44
2023-01-06T22:14:35.571Z,1013.47
2023-01-06T22:18:35.599Z,1013.48
2023-01-06T22:22:35.471Z,1013.42
2023-01-06T22:26:35.410Z,1013.28
2023-01-06T22:30:36.013Z,1013.39
2023-01-06T22:34:35.753Z,1013.54
2023-01-06T22:38:35.893Z,1013.43
2023-01-06T22:42:35.879Z,1013.48
2023-01-06T22:46:36.167Z,1013.42
2023-01-06T22:50:36.204Z,1013.51
2023-01-06T22:54:36.064Z,1013.55
2023-01-06T22:58:35.907Z,1013.47
2023-01-06T23:02:37.170Z,1013.47
2023-01-06T23:06:35.803Z,1013.43
2023-01-06T23:10:35.902Z,1013.46
2023-01-06T23:14:35.777Z,1013.44
2023-01-06T23:18:35.986Z,1013.43
2023-01-06T23:22:35.954Z,1013.41
2023-01-06T23:26:35.894Z,1013.17
2023-01-06T23:30:35.902Z,1013.26
2023-01-06T23:34:36.119Z,1013.3
2023-01-06T23:38:37.469Z,1013.18
2023-01-06T23:42:40.726Z,1013.18
2023-01-06T23:46:36.357Z,1013.13
2023-01-06T23:50:35.408Z,1012.97
2023-01-06T23:54:35.762Z,1012.96
2023-01-06T23:58:35.469Z,1012.97
